sensor_id;sensor_type;location;lat;lon;timestamp;P1;durP1;ratioP1;P2;durP2;ratioP2
73264;SDS011;61493;51.008;14.088;2022-07-03T00:01:19;6.32;;;3.72;;
73264;SDS011;61493;51.008;14.088;2022-07-03T00:03:44;4.60;;;2.95;;
73264;SDS011;61493;51.008;14.088;2022-07-03T00:06:09;4.55;;;3.63;;
73264;SDS011;61493;51.008;14.088;2022-07-03T00:08:35;6.15;;;3.88;;
73264;SDS011;61493;51.008;14.088;2022-07-03T00:11:01;5.72;;;3.58;;
73264;SDS011;61493;51.008;14.088;2022-07-03T00:13:26;5.22;;;3.53;;
73264;SDS011;61493;51.008;14.088;2022-07-03T00:15:52;5.97;;;3.20;;
73264;SDS011;61493;51.008;14.088;2022-07-03T00:18:17;6.80;;;3.20;;
73264;SDS011;61493;51.008;14.088;2022-07-03T00:20:47;4.65;;;3.53;;
73264;SDS011;61493;51.008;14.088;2022-07-03T00:23:16;4.93;;;3.55;;
73264;SDS011;61493;51.008;14.088;2022-07-03T00:25:43;5.40;;;3.83;;
73264;SDS011;61493;51.008;14.088;2022-07-03T00:28:10;6.03;;;3.80;;
73264;SDS011;61493;51.008;14.088;2022-07-03T00:30:35;6.90;;;4.00;;
73264;SDS011;61493;51.008;14.088;2022-07-03T00:33:02;4.20;;;3.03;;
73264;SDS011;61493;51.008;14.088;2022-07-03T00:35:32;6.38;;;4.05;;
73264;SDS011;61493;51.008;14.088;2022-07-03T00:37:59;6.22;;;4.18;;
73264;SDS011;61493;51.008;14.088;2022-07-03T00:40:26;4.03;;;3.45;;
73264;SDS011;61493;51.008;14.088;2022-07-03T00:42:51;5.97;;;3.83;;
73264;SDS011;61493;51.008;14.088;2022-07-03T00:45:19;4.28;;;3.10;;
73264;SDS011;61493;51.008;14.088;2022-07-03T00:47:45;4.85;;;3.13;;
73264;SDS011;61493;51.008;14.088;2022-07-03T00:50:11;5.93;;;3.50;;
73264;SDS011;61493;51.008;14.088;2022-07-03T00:52:37;3.75;;;3.10;;
73264;SDS011;61493;51.008;14.088;2022-07-03T00:55:08;4.70;;;3.75;;
73264;SDS011;61493;51.008;14.088;2022-07-03T00:57:46;4.90;;;3.60;;
73264;SDS011;61493;51.008;14.088;2022-07-03T01:00:13;4.65;;;3.45;;
73264;SDS011;61493;51.008;14.088;2022-07-03T01:05:12;4.38;;;3.70;;
73264;SDS011;61493;51.008;14.088;2022-07-03T01:13:07;4.30;;;3.60;;
73264;SDS011;61493;51.008;14.088;2022-07-03T01:15:46;5.93;;;4.28;;
73264;SDS011;61493;51.008;14.088;2022-07-03T01:18:30;5.00;;;3.50;;
73264;SDS011;61493;51.008;14.088;2022-07-03T01:21:07;5.55;;;3.72;;
73264;SDS011;61493;51.008;14.088;2022-07-03T01:23:47;5.38;;;3.70;;
73264;SDS011;61493;51.008;14.088;2022-07-03T01:26:27;6.18;;;3.97;;
73264;SDS011;61493;51.008;14.088;2022-07-03T01:28:55;4.50;;;3.45;;
73264;SDS011;61493;51.008;14.088;2022-07-03T01:31:28;5.88;;;3.67;;
73264;SDS011;61493;51.008;14.088;2022-07-03T01:33:56;6.03;;;3.38;;
73264;SDS011;61493;51.008;14.088;2022-07-03T01:36:23;5.57;;;3.55;;
73264;SDS011;61493;51.008;14.088;2022-07-03T01:38:50;6.07;;;3.70;;
73264;SDS011;61493;51.008;14.088;2022-07-03T01:41:15;6.97;;;4.43;;
73264;SDS011;61493;51.008;14.088;2022-07-03T01:43:48;5.97;;;3.33;;
73264;SDS011;61493;51.008;14.088;2022-07-03T01:46:17;5.05;;;3.60;;
73264;SDS011;61493;51.008;14.088;2022-07-03T01:48:46;5.60;;;3.92;;
73264;SDS011;61493;51.008;14.088;2022-07-03T01:51:14;4.90;;;4.03;;
73264;SDS011;61493;51.008;14.088;2022-07-03T01:53:45;5.30;;;3.60;;
73264;SDS011;61493;51.008;14.088;2022-07-03T01:56:14;5.50;;;4.13;;
73264;SDS011;61493;51.008;14.088;2022-07-03T01:58:40;5.55;;;4.10;;
73264;SDS011;61493;51.008;14.088;2022-07-03T02:03:34;5.85;;;4.25;;
73264;SDS011;61493;51.008;14.088;2022-07-03T02:06:06;6.07;;;3.97;;
73264;SDS011;61493;51.008;14.088;2022-07-03T02:08:55;4.63;;;3.67;;
73264;SDS011;61493;51.008;14.088;2022-07-03T02:11:27;5.72;;;4.38;;
73264;SDS011;61493;51.008;14.088;2022-07-03T02:14:13;5.07;;;3.60;;
73264;SDS011;61493;51.008;14.088;2022-07-03T02:19:26;7.38;;;4.72;;
73264;SDS011;61493;51.008;14.088;2022-07-03T02:22:01;5.65;;;4.30;;
73264;SDS011;61493;51.008;14.088;2022-07-03T02:24:28;5.38;;;3.65;;
73264;SDS011;61493;51.008;14.088;2022-07-03T02:27:03;6.30;;;4.05;;
73264;SDS011;61493;51.008;14.088;2022-07-03T02:29:33;4.63;;;3.78;;
73264;SDS011;61493;51.008;14.088;2022-07-03T02:32:06;6.28;;;3.92;;
73264;SDS011;61493;51.008;14.088;2022-07-03T02:34:35;6.65;;;3.70;;
73264;SDS011;61493;51.008;14.088;2022-07-03T02:37:05;5.90;;;3.85;;
73264;SDS011;61493;51.008;14.088;2022-07-03T02:39:45;5.05;;;3.83;;
73264;SDS011;61493;51.008;14.088;2022-07-03T02:42:25;5.10;;;3.63;;
73264;SDS011;61493;51.008;14.088;2022-07-03T02:45:03;4.90;;;3.72;;
73264;SDS011;61493;51.008;14.088;2022-07-03T02:47:45;7.60;;;4.05;;
73264;SDS011;61493;51.008;14.088;2022-07-03T02:50:20;8.77;;;4.07;;
73264;SDS011;61493;51.008;14.088;2022-07-03T02:52:49;6.68;;;4.05;;
73264;SDS011;61493;51.008;14.088;2022-07-03T03:00:48;7.40;;;4.05;;
73264;SDS011;61493;51.008;14.088;2022-07-03T03:03:22;5.60;;;3.70;;
73264;SDS011;61493;51.008;14.088;2022-07-03T03:05:52;6.10;;;4.00;;
73264;SDS011;61493;51.008;14.088;2022-07-03T03:08:34;8.38;;;3.92;;
73264;SDS011;61493;51.008;14.088;2022-07-03T03:12:02;5.20;;;3.30;;
73264;SDS011;61493;51.008;14.088;2022-07-03T03:14:14;4.95;;;3.63;;
73264;SDS011;61493;51.008;14.088;2022-07-03T03:16:48;5.60;;;3.45;;
73264;SDS011;61493;51.008;14.088;2022-07-03T03:19:17;5.40;;;3.60;;
73264;SDS011;61493;51.008;14.088;2022-07-03T03:22:07;4.15;;;3.25;;
73264;SDS011;61493;51.008;14.088;2022-07-03T03:24:56;5.32;;;3.60;;
73264;SDS011;61493;51.008;14.088;2022-07-03T03:27:21;5.95;;;3.67;;
73264;SDS011;61493;51.008;14.088;2022-07-03T03:29:48;5.43;;;3.70;;
73264;SDS011;61493;51.008;14.088;2022-07-03T03:32:14;9.30;;;3.92;;
73264;SDS011;61493;51.008;14.088;2022-07-03T03:34:41;5.72;;;3.20;;
73264;SDS011;61493;51.008;14.088;2022-07-03T03:37:08;5.30;;;3.47;;
73264;SDS011;61493;51.008;14.088;2022-07-03T03:39:33;5.00;;;3.40;;
73264;SDS011;61493;51.008;14.088;2022-07-03T03:41:59;5.13;;;3.50;;
73264;SDS011;61493;51.008;14.088;2022-07-03T03:44:27;4.18;;;2.95;;
73264;SDS011;61493;51.008;14.088;2022-07-03T03:46:52;5.45;;;3.17;;
73264;SDS011;61493;51.008;14.088;2022-07-03T03:49:19;5.15;;;3.40;;
73264;SDS011;61493;51.008;14.088;2022-07-03T03:51:45;6.13;;;3.47;;
73264;SDS011;61493;51.008;14.088;2022-07-03T03:54:10;5.32;;;3.03;;
73264;SDS011;61493;51.008;14.088;2022-07-03T03:56:35;5.93;;;3.00;;
73264;SDS011;61493;51.008;14.088;2022-07-03T03:59:01;5.95;;;3.38;;
73264;SDS011;61493;51.008;14.088;2022-07-03T04:01:26;4.50;;;3.38;;
73264;SDS011;61493;51.008;14.088;2022-07-03T04:03:51;3.97;;;3.05;;
73264;SDS011;61493;51.008;14.088;2022-07-03T04:06:18;4.05;;;3.03;;
73264;SDS011;61493;51.008;14.088;2022-07-03T04:08:44;5.25;;;3.10;;
73264;SDS011;61493;51.008;14.088;2022-07-03T04:11:09;3.28;;;2.70;;
73264;SDS011;61493;51.008;14.088;2022-07-03T04:13:35;4.13;;;3.55;;
73264;SDS011;61493;51.008;14.088;2022-07-03T04:16:00;7.38;;;3.25;;
73264;SDS011;61493;51.008;14.088;2022-07-03T04:18:25;4.55;;;2.97;;
73264;SDS011;61493;51.008;14.088;2022-07-03T04:20:50;4.88;;;3.72;;
73264;SDS011;61493;51.008;14.088;2022-07-03T04:23:16;7.63;;;3.17;;
73264;SDS011;61493;51.008;14.088;2022-07-03T04:25:42;4.60;;;3.17;;
73264;SDS011;61493;51.008;14.088;2022-07-03T04:28:07;5.28;;;3.28;;
73264;SDS011;61493;51.008;14.088;2022-07-03T04:30:33;3.80;;;2.53;;
73264;SDS011;61493;51.008;14.088;2022-07-03T04:32:58;4.00;;;2.88;;
73264;SDS011;61493;51.008;14.088;2022-07-03T04:35:24;5.20;;;3.30;;
73264;SDS011;61493;51.008;14.088;2022-07-03T04:37:49;3.97;;;2.72;;
73264;SDS011;61493;51.008;14.088;2022-07-03T04:40:15;6.65;;;2.92;;
73264;SDS011;61493;51.008;14.088;2022-07-03T04:42:40;3.42;;;2.63;;
73264;SDS011;61493;51.008;14.088;2022-07-03T04:45:06;3.88;;;2.88;;
73264;SDS011;61493;51.008;14.088;2022-07-03T04:47:32;4.85;;;3.25;;
73264;SDS011;61493;51.008;14.088;2022-07-03T04:49:58;4.75;;;3.08;;
73264;SDS011;61493;51.008;14.088;2022-07-03T04:52:23;4.40;;;3.03;;
73264;SDS011;61493;51.008;14.088;2022-07-03T04:54:49;5.47;;;2.88;;
73264;SDS011;61493;51.008;14.088;2022-07-03T04:57:14;3.00;;;2.70;;
73264;SDS011;61493;51.008;14.088;2022-07-03T04:59:39;7.30;;;3.42;;
73264;SDS011;61493;51.008;14.088;2022-07-03T05:02:05;3.63;;;2.80;;
73264;SDS011;61493;51.008;14.088;2022-07-03T05:04:30;5.65;;;3.40;;
73264;SDS011;61493;51.008;14.088;2022-07-03T05:06:55;4.18;;;3.03;;
73264;SDS011;61493;51.008;14.088;2022-07-03T05:09:21;4.53;;;2.95;;
73264;SDS011;61493;51.008;14.088;2022-07-03T05:11:46;5.18;;;3.10;;
73264;SDS011;61493;51.008;14.088;2022-07-03T05:14:12;4.00;;;2.97;;
73264;SDS011;61493;51.008;14.088;2022-07-03T05:16:37;3.53;;;2.78;;
73264;SDS011;61493;51.008;14.088;2022-07-03T05:19:03;4.03;;;3.17;;
73264;SDS011;61493;51.008;14.088;2022-07-03T05:21:28;3.85;;;2.72;;
73264;SDS011;61493;51.008;14.088;2022-07-03T05:23:54;5.47;;;3.08;;
73264;SDS011;61493;51.008;14.088;2022-07-03T05:26:19;5.28;;;2.78;;
73264;SDS011;61493;51.008;14.088;2022-07-03T05:28:44;5.45;;;3.08;;
73264;SDS011;61493;51.008;14.088;2022-07-03T05:31:10;3.83;;;2.78;;
73264;SDS011;61493;51.008;14.088;2022-07-03T05:33:35;4.47;;;3.15;;
73264;SDS011;61493;51.008;14.088;2022-07-03T05:36:01;4.03;;;2.70;;
73264;SDS011;61493;51.008;14.088;2022-07-03T05:38:33;5.32;;;2.95;;
73264;SDS011;61493;51.008;14.088;2022-07-03T05:41:17;5.05;;;3.22;;
73264;SDS011;61493;51.008;14.088;2022-07-03T05:43:42;6.15;;;3.17;;
73264;SDS011;61493;51.008;14.088;2022-07-03T05:46:08;3.55;;;2.95;;
73264;SDS011;61493;51.008;14.088;2022-07-03T05:48:33;4.88;;;2.35;;
73264;SDS011;61493;51.008;14.088;2022-07-03T05:50:59;4.22;;;2.97;;
73264;SDS011;61493;51.008;14.088;2022-07-03T05:53:25;9.18;;;3.05;;
73264;SDS011;61493;51.008;14.088;2022-07-03T05:55:50;4.72;;;2.53;;
73264;SDS011;61493;51.008;14.088;2022-07-03T05:58:16;3.95;;;2.60;;
73264;SDS011;61493;51.008;14.088;2022-07-03T06:00:44;3.13;;;2.47;;
73264;SDS011;61493;51.008;14.088;2022-07-03T06:03:10;2.97;;;2.50;;
73264;SDS011;61493;51.008;14.088;2022-07-03T06:05:35;4.95;;;2.50;;
73264;SDS011;61493;51.008;14.088;2022-07-03T06:08:01;3.63;;;2.45;;
73264;SDS011;61493;51.008;14.088;2022-07-03T06:10:27;3.72;;;2.60;;
73264;SDS011;61493;51.008;14.088;2022-07-03T06:12:53;3.15;;;2.33;;
73264;SDS011;61493;51.008;14.088;2022-07-03T06:15:19;4.80;;;2.63;;
73264;SDS011;61493;51.008;14.088;2022-07-03T06:17:44;3.95;;;2.75;;
73264;SDS011;61493;51.008;14.088;2022-07-03T06:20:10;2.60;;;2.17;;
73264;SDS011;61493;51.008;14.088;2022-07-03T06:22:36;4.53;;;3.03;;
73264;SDS011;61493;51.008;14.088;2022-07-03T06:25:02;2.80;;;2.20;;
73264;SDS011;61493;51.008;14.088;2022-07-03T06:27:31;3.92;;;2.67;;
73264;SDS011;61493;51.008;14.088;2022-07-03T06:29:56;3.42;;;2.70;;
73264;SDS011;61493;51.008;14.088;2022-07-03T06:32:21;4.18;;;2.78;;
73264;SDS011;61493;51.008;14.088;2022-07-03T06:34:47;7.65;;;2.40;;
73264;SDS011;61493;51.008;14.088;2022-07-03T06:37:13;6.57;;;2.47;;
73264;SDS011;61493;51.008;14.088;2022-07-03T06:39:38;3.63;;;2.63;;
73264;SDS011;61493;51.008;14.088;2022-07-03T06:42:04;3.97;;;2.47;;
73264;SDS011;61493;51.008;14.088;2022-07-03T06:44:29;5.82;;;2.75;;
73264;SDS011;61493;51.008;14.088;2022-07-03T06:46:55;4.15;;;2.63;;
73264;SDS011;61493;51.008;14.088;2022-07-03T06:49:21;2.85;;;2.20;;
73264;SDS011;61493;51.008;14.088;2022-07-03T06:51:47;3.88;;;3.05;;
73264;SDS011;61493;51.008;14.088;2022-07-03T06:54:12;3.65;;;2.53;;
73264;SDS011;61493;51.008;14.088;2022-07-03T06:56:37;3.33;;;2.38;;
73264;SDS011;61493;51.008;14.088;2022-07-03T06:59:03;5.35;;;2.60;;
73264;SDS011;61493;51.008;14.088;2022-07-03T07:01:28;3.80;;;2.20;;
73264;SDS011;61493;51.008;14.088;2022-07-03T07:03:53;3.38;;;2.17;;
73264;SDS011;61493;51.008;14.088;2022-07-03T07:06:19;4.32;;;2.30;;
73264;SDS011;61493;51.008;14.088;2022-07-03T07:08:44;3.22;;;2.30;;
73264;SDS011;61493;51.008;14.088;2022-07-03T07:11:09;3.33;;;2.17;;
73264;SDS011;61493;51.008;14.088;2022-07-03T07:13:34;3.65;;;2.70;;
73264;SDS011;61493;51.008;14.088;2022-07-03T07:16:00;5.18;;;2.85;;
73264;SDS011;61493;51.008;14.088;2022-07-03T07:18:26;2.95;;;2.15;;
73264;SDS011;61493;51.008;14.088;2022-07-03T07:20:51;2.70;;;2.38;;
73264;SDS011;61493;51.008;14.088;2022-07-03T07:23:17;3.42;;;2.42;;
73264;SDS011;61493;51.008;14.088;2022-07-03T07:25:43;3.58;;;2.30;;
73264;SDS011;61493;51.008;14.088;2022-07-03T07:28:08;3.03;;;2.00;;
73264;SDS011;61493;51.008;14.088;2022-07-03T07:30:33;2.97;;;2.33;;
73264;SDS011;61493;51.008;14.088;2022-07-03T07:32:59;3.23;;;2.60;;
73264;SDS011;61493;51.008;14.088;2022-07-03T07:35:24;4.60;;;2.63;;
73264;SDS011;61493;51.008;14.088;2022-07-03T07:37:49;5.93;;;2.50;;
73264;SDS011;61493;51.008;14.088;2022-07-03T07:40:15;3.27;;;2.33;;
73264;SDS011;61493;51.008;14.088;2022-07-03T07:42:40;3.28;;;2.40;;
73264;SDS011;61493;51.008;14.088;2022-07-03T07:45:09;2.92;;;2.30;;
73264;SDS011;61493;51.008;14.088;2022-07-03T07:47:35;3.10;;;2.13;;
73264;SDS011;61493;51.008;14.088;2022-07-03T07:50:00;3.28;;;2.55;;
73264;SDS011;61493;51.008;14.088;2022-07-03T07:52:26;4.20;;;2.25;;
73264;SDS011;61493;51.008;14.088;2022-07-03T07:54:51;3.58;;;2.85;;
73264;SDS011;61493;51.008;14.088;2022-07-03T07:57:16;3.55;;;2.10;;
73264;SDS011;61493;51.008;14.088;2022-07-03T07:59:42;2.42;;;2.20;;
73264;SDS011;61493;51.008;14.088;2022-07-03T08:02:07;3.75;;;2.35;;
73264;SDS011;61493;51.008;14.088;2022-07-03T08:04:51;2.85;;;1.80;;
73264;SDS011;61493;51.008;14.088;2022-07-03T08:07:35;2.47;;;2.10;;
73264;SDS011;61493;51.008;14.088;2022-07-03T08:10:00;2.27;;;1.90;;
73264;SDS011;61493;51.008;14.088;2022-07-03T08:12:26;3.95;;;2.10;;
73264;SDS011;61493;51.008;14.088;2022-07-03T08:14:51;3.60;;;2.30;;
73264;SDS011;61493;51.008;14.088;2022-07-03T08:17:16;4.67;;;2.17;;
73264;SDS011;61493;51.008;14.088;2022-07-03T08:19:42;2.63;;;1.90;;
73264;SDS011;61493;51.008;14.088;2022-07-03T08:22:07;2.05;;;1.85;;
73264;SDS011;61493;51.008;14.088;2022-07-03T08:24:32;2.92;;;1.70;;
73264;SDS011;61493;51.008;14.088;2022-07-03T08:26:58;3.20;;;1.80;;
73264;SDS011;61493;51.008;14.088;2022-07-03T08:29:23;2.97;;;2.17;;
73264;SDS011;61493;51.008;14.088;2022-07-03T08:31:48;2.78;;;1.80;;
73264;SDS011;61493;51.008;14.088;2022-07-03T08:34:14;2.45;;;1.83;;
73264;SDS011;61493;51.008;14.088;2022-07-03T08:36:40;4.25;;;2.20;;
73264;SDS011;61493;51.008;14.088;2022-07-03T08:39:06;2.75;;;2.17;;
73264;SDS011;61493;51.008;14.088;2022-07-03T08:41:32;2.40;;;1.80;;
73264;SDS011;61493;51.008;14.088;2022-07-03T08:43:59;3.30;;;1.63;;
73264;SDS011;61493;51.008;14.088;2022-07-03T08:46:26;2.92;;;2.08;;
73264;SDS011;61493;51.008;14.088;2022-07-03T08:48:52;2.53;;;1.80;;
73264;SDS011;61493;51.008;14.088;2022-07-03T08:51:19;2.92;;;2.03;;
73264;SDS011;61493;51.008;14.088;2022-07-03T08:53:45;2.63;;;1.70;;
73264;SDS011;61493;51.008;14.088;2022-07-03T08:56:12;3.38;;;1.70;;
73264;SDS011;61493;51.008;14.088;2022-07-03T08:58:37;3.30;;;1.55;;
73264;SDS011;61493;51.008;14.088;2022-07-03T09:01:03;1.90;;;1.52;;
73264;SDS011;61493;51.008;14.088;2022-07-03T09:03:29;2.25;;;1.73;;
73264;SDS011;61493;51.008;14.088;2022-07-03T09:05:56;2.80;;;2.05;;
73264;SDS011;61493;51.008;14.088;2022-07-03T09:08:22;2.05;;;1.85;;
73264;SDS011;61493;51.008;14.088;2022-07-03T09:10:48;2.13;;;1.80;;
73264;SDS011;61493;51.008;14.088;2022-07-03T09:13:14;2.05;;;1.70;;
73264;SDS011;61493;51.008;14.088;2022-07-03T09:15:39;4.68;;;1.90;;
73264;SDS011;61493;51.008;14.088;2022-07-03T09:18:05;2.38;;;1.70;;
73264;SDS011;61493;51.008;14.088;2022-07-03T09:20:36;1.98;;;1.70;;
73264;SDS011;61493;51.008;14.088;2022-07-03T09:23:13;2.65;;;1.90;;
73264;SDS011;61493;51.008;14.088;2022-07-03T09:26:17;2.40;;;1.90;;
73264;SDS011;61493;51.008;14.088;2022-07-03T09:28:50;3.10;;;2.08;;
73264;SDS011;61493;51.008;14.088;2022-07-03T09:31:23;4.00;;;2.47;;
73264;SDS011;61493;51.008;14.088;2022-07-03T09:36:23;2.20;;;1.90;;
73264;SDS011;61493;51.008;14.088;2022-07-03T09:42:05;2.05;;;1.70;;
73264;SDS011;61493;51.008;14.088;2022-07-03T09:52:28;1.70;;;1.58;;
73264;SDS011;61493;51.008;14.088;2022-07-03T09:55:15;2.50;;;2.00;;
73264;SDS011;61493;51.008;14.088;2022-07-03T10:00:22;3.00;;;2.13;;
73264;SDS011;61493;51.008;14.088;2022-07-03T10:02:59;5.68;;;1.77;;
73264;SDS011;61493;51.008;14.088;2022-07-03T10:05:25;2.90;;;1.95;;
73264;SDS011;61493;51.008;14.088;2022-07-03T10:07:57;3.15;;;2.00;;
73264;SDS011;61493;51.008;14.088;2022-07-03T10:10:28;3.35;;;2.00;;
73264;SDS011;61493;51.008;14.088;2022-07-03T10:12:55;2.33;;;1.80;;
73264;SDS011;61493;51.008;14.088;2022-07-03T10:15:21;2.15;;;1.65;;
73264;SDS011;61493;51.008;14.088;2022-07-03T10:17:53;2.83;;;1.77;;
73264;SDS011;61493;51.008;14.088;2022-07-03T10:20:26;2.25;;;1.80;;
73264;SDS011;61493;51.008;14.088;2022-07-03T10:22:56;4.13;;;1.77;;
73264;SDS011;61493;51.008;14.088;2022-07-03T10:25:22;4.65;;;2.05;;
73264;SDS011;61493;51.008;14.088;2022-07-03T10:27:48;2.08;;;1.88;;
73264;SDS011;61493;51.008;14.088;2022-07-03T10:30:14;2.30;;;1.70;;
73264;SDS011;61493;51.008;14.088;2022-07-03T10:32:45;2.85;;;1.80;;
73264;SDS011;61493;51.008;14.088;2022-07-03T10:35:13;2.33;;;1.80;;
73264;SDS011;61493;51.008;14.088;2022-07-03T10:37:51;3.65;;;2.05;;
73264;SDS011;61493;51.008;14.088;2022-07-03T10:43:28;2.65;;;1.92;;
73264;SDS011;61493;51.008;14.088;2022-07-03T10:46:17;3.78;;;1.63;;
73264;SDS011;61493;51.008;14.088;2022-07-03T10:48:56;4.47;;;2.10;;
73264;SDS011;61493;51.008;14.088;2022-07-03T10:54:12;4.32;;;1.85;;
73264;SDS011;61493;51.008;14.088;2022-07-03T10:59:22;1.90;;;1.73;;
73264;SDS011;61493;51.008;14.088;2022-07-03T11:01:47;3.42;;;1.95;;
73264;SDS011;61493;51.008;14.088;2022-07-03T11:04:13;3.13;;;2.83;;
73264;SDS011;61493;51.008;14.088;2022-07-03T11:09:08;4.07;;;1.92;;
73264;SDS011;61493;51.008;14.088;2022-07-03T11:11:44;2.40;;;2.08;;
73264;SDS011;61493;51.008;14.088;2022-07-03T11:14:27;2.67;;;2.05;;
73264;SDS011;61493;51.008;14.088;2022-07-03T11:19:51;2.50;;;2.30;;
73264;SDS011;61493;51.008;14.088;2022-07-03T11:22:48;2.63;;;1.90;;
73264;SDS011;61493;51.008;14.088;2022-07-03T11:25:18;2.10;;;1.90;;
73264;SDS011;61493;51.008;14.088;2022-07-03T11:27:43;3.47;;;2.17;;
73264;SDS011;61493;51.008;14.088;2022-07-03T11:30:09;3.33;;;2.47;;
73264;SDS011;61493;51.008;14.088;2022-07-03T11:32:43;3.08;;;2.25;;
73264;SDS011;61493;51.008;14.088;2022-07-03T11:38:18;4.28;;;2.25;;
73264;SDS011;61493;51.008;14.088;2022-07-03T11:40:46;2.28;;;2.03;;
73264;SDS011;61493;51.008;14.088;2022-07-03T11:43:19;3.95;;;2.30;;
73264;SDS011;61493;51.008;14.088;2022-07-03T11:45:45;2.38;;;2.00;;
73264;SDS011;61493;51.008;14.088;2022-07-03T11:48:13;5.03;;;2.28;;
73264;SDS011;61493;51.008;14.088;2022-07-03T11:50:40;4.07;;;2.33;;
73264;SDS011;61493;51.008;14.088;2022-07-03T11:53:17;3.38;;;2.30;;
73264;SDS011;61493;51.008;14.088;2022-07-03T11:55:54;2.60;;;2.22;;
73264;SDS011;61493;51.008;14.088;2022-07-03T11:58:25;2.20;;;2.00;;
73264;SDS011;61493;51.008;14.088;2022-07-03T12:01:03;2.40;;;2.08;;
73264;SDS011;61493;51.008;14.088;2022-07-03T12:03:29;2.65;;;2.15;;
73264;SDS011;61493;51.008;14.088;2022-07-03T12:05:55;2.37;;;2.10;;
73264;SDS011;61493;51.008;14.088;2022-07-03T12:08:27;3.17;;;2.70;;
73264;SDS011;61493;51.008;14.088;2022-07-03T12:10:56;2.30;;;1.85;;
73264;SDS011;61493;51.008;14.088;2022-07-03T12:13:23;2.42;;;2.03;;
73264;SDS011;61493;51.008;14.088;2022-07-03T12:15:50;3.03;;;2.28;;
73264;SDS011;61493;51.008;14.088;2022-07-03T12:18:15;2.42;;;1.95;;
73264;SDS011;61493;51.008;14.088;2022-07-03T12:20:41;2.30;;;2.10;;
73264;SDS011;61493;51.008;14.088;2022-07-03T12:23:07;5.20;;;2.30;;
73264;SDS011;61493;51.008;14.088;2022-07-03T12:25:37;4.13;;;2.40;;
73264;SDS011;61493;51.008;14.088;2022-07-03T12:28:04;2.33;;;2.10;;
73264;SDS011;61493;51.008;14.088;2022-07-03T12:30:29;3.50;;;2.40;;
73264;SDS011;61493;51.008;14.088;2022-07-03T12:32:55;3.90;;;2.30;;
73264;SDS011;61493;51.008;14.088;2022-07-03T12:35:21;3.17;;;2.60;;
73264;SDS011;61493;51.008;14.088;2022-07-03T12:37:47;2.78;;;2.13;;
73264;SDS011;61493;51.008;14.088;2022-07-03T12:40:13;3.28;;;2.60;;
73264;SDS011;61493;51.008;14.088;2022-07-03T12:45:18;3.30;;;2.58;;
73264;SDS011;61493;51.008;14.088;2022-07-03T12:47:45;3.65;;;2.63;;
73264;SDS011;61493;51.008;14.088;2022-07-03T12:50:21;5.00;;;2.90;;
73264;SDS011;61493;51.008;14.088;2022-07-03T12:52:50;3.30;;;2.50;;
73264;SDS011;61493;51.008;14.088;2022-07-03T12:55:27;5.53;;;2.75;;
73264;SDS011;61493;51.008;14.088;2022-07-03T12:58:13;5.00;;;2.65;;
73264;SDS011;61493;51.008;14.088;2022-07-03T13:00:59;4.65;;;2.67;;
73264;SDS011;61493;51.008;14.088;2022-07-03T13:03:28;4.43;;;2.72;;
73264;SDS011;61493;51.008;14.088;2022-07-03T13:05:59;2.92;;;2.47;;
73264;SDS011;61493;51.008;14.088;2022-07-03T13:08:24;3.13;;;2.33;;
73264;SDS011;61493;51.008;14.088;2022-07-03T13:10:56;3.33;;;2.78;;
73264;SDS011;61493;51.008;14.088;2022-07-03T13:13:23;3.95;;;2.88;;
73264;SDS011;61493;51.008;14.088;2022-07-03T13:15:49;4.72;;;2.72;;
73264;SDS011;61493;51.008;14.088;2022-07-03T13:18:14;3.22;;;2.80;;
73264;SDS011;61493;51.008;14.088;2022-07-03T13:20:39;2.95;;;2.50;;
73264;SDS011;61493;51.008;14.088;2022-07-03T13:23:05;3.28;;;2.80;;
73264;SDS011;61493;51.008;14.088;2022-07-03T13:25:33;3.60;;;2.47;;
73264;SDS011;61493;51.008;14.088;2022-07-03T13:30:29;2.45;;;2.25;;
73264;SDS011;61493;51.008;14.088;2022-07-03T13:32:55;3.05;;;2.65;;
73264;SDS011;61493;51.008;14.088;2022-07-03T13:35:20;3.42;;;2.70;;
73264;SDS011;61493;51.008;14.088;2022-07-03T13:37:46;3.00;;;2.42;;
73264;SDS011;61493;51.008;14.088;2022-07-03T13:40:11;3.47;;;2.67;;
73264;SDS011;61493;51.008;14.088;2022-07-03T13:42:36;5.05;;;2.78;;
73264;SDS011;61493;51.008;14.088;2022-07-03T13:45:01;3.55;;;2.72;;
73264;SDS011;61493;51.008;14.088;2022-07-03T13:47:27;5.32;;;3.00;;
73264;SDS011;61493;51.008;14.088;2022-07-03T13:49:52;4.32;;;3.00;;
73264;SDS011;61493;51.008;14.088;2022-07-03T13:52:18;3.57;;;2.83;;
73264;SDS011;61493;51.008;14.088;2022-07-03T13:54:43;5.15;;;2.80;;
73264;SDS011;61493;51.008;14.088;2022-07-03T13:57:08;3.15;;;2.63;;
73264;SDS011;61493;51.008;14.088;2022-07-03T13:59:34;2.95;;;2.53;;
73264;SDS011;61493;51.008;14.088;2022-07-03T14:01:59;3.70;;;2.80;;
73264;SDS011;61493;51.008;14.088;2022-07-03T14:04:25;3.50;;;2.72;;
73264;SDS011;61493;51.008;14.088;2022-07-03T14:06:51;4.65;;;2.75;;
73264;SDS011;61493;51.008;14.088;2022-07-03T14:09:16;3.58;;;2.67;;
73264;SDS011;61493;51.008;14.088;2022-07-03T14:11:42;3.40;;;2.63;;
73264;SDS011;61493;51.008;14.088;2022-07-03T14:14:08;3.70;;;2.72;;
73264;SDS011;61493;51.008;14.088;2022-07-03T14:16:33;3.03;;;2.45;;
73264;SDS011;61493;51.008;14.088;2022-07-03T14:18:59;3.10;;;2.25;;
73264;SDS011;61493;51.008;14.088;2022-07-03T14:21:24;4.07;;;3.05;;
73264;SDS011;61493;51.008;14.088;2022-07-03T14:23:50;4.40;;;2.75;;
73264;SDS011;61493;51.008;14.088;2022-07-03T14:26:15;4.50;;;2.97;;
73264;SDS011;61493;51.008;14.088;2022-07-03T14:29:00;4.10;;;2.55;;
73264;SDS011;61493;51.008;14.088;2022-07-03T14:31:44;3.25;;;2.72;;
73264;SDS011;61493;51.008;14.088;2022-07-03T14:34:28;3.45;;;2.40;;
73264;SDS011;61493;51.008;14.088;2022-07-03T14:36:54;3.10;;;2.60;;
73264;SDS011;61493;51.008;14.088;2022-07-03T14:39:20;4.78;;;2.40;;
73264;SDS011;61493;51.008;14.088;2022-07-03T14:41:45;3.20;;;2.90;;
73264;SDS011;61493;51.008;14.088;2022-07-03T14:44:13;5.20;;;2.65;;
73264;SDS011;61493;51.008;14.088;2022-07-03T14:46:39;3.30;;;2.70;;
73264;SDS011;61493;51.008;14.088;2022-07-03T14:49:04;2.60;;;2.37;;
73264;SDS011;61493;51.008;14.088;2022-07-03T14:51:30;3.40;;;2.60;;
73264;SDS011;61493;51.008;14.088;2022-07-03T14:53:56;3.50;;;2.70;;
73264;SDS011;61493;51.008;14.088;2022-07-03T14:56:21;4.78;;;2.83;;
73264;SDS011;61493;51.008;14.088;2022-07-03T14:58:47;3.53;;;2.60;;
73264;SDS011;61493;51.008;14.088;2022-07-03T15:01:15;3.47;;;2.58;;
73264;SDS011;61493;51.008;14.088;2022-07-03T15:03:44;3.03;;;2.58;;
73264;SDS011;61493;51.008;14.088;2022-07-03T15:06:18;4.45;;;2.75;;
73264;SDS011;61493;51.008;14.088;2022-07-03T15:09:03;3.63;;;2.60;;
73264;SDS011;61493;51.008;14.088;2022-07-03T15:11:32;2.97;;;2.65;;
73264;SDS011;61493;51.008;14.088;2022-07-03T15:14:24;3.45;;;2.33;;
73264;SDS011;61493;51.008;14.088;2022-07-03T15:16:54;3.85;;;2.38;;
73264;SDS011;61493;51.008;14.088;2022-07-03T15:19:19;3.28;;;2.13;;
73264;SDS011;61493;51.008;14.088;2022-07-03T15:24:32;2.53;;;2.17;;
73264;SDS011;61493;51.008;14.088;2022-07-03T15:27:01;2.75;;;2.22;;
73264;SDS011;61493;51.008;14.088;2022-07-03T15:29:28;3.42;;;2.28;;
73264;SDS011;61493;51.008;14.088;2022-07-03T15:31:54;3.22;;;2.50;;
73264;SDS011;61493;51.008;14.088;2022-07-03T15:34:20;2.75;;;2.13;;
73264;SDS011;61493;51.008;14.088;2022-07-03T15:37:03;2.78;;;2.10;;
73264;SDS011;61493;51.008;14.088;2022-07-03T15:42:27;2.58;;;2.33;;
73264;SDS011;61493;51.008;14.088;2022-07-03T15:45:06;2.80;;;2.60;;